Flight Track Log - Related Links

Times and Time Zones

All times are in EDT time to prevent confusion due to time zone crossing. See the SWA558 flight status page for this flight to view local times or setup timezone preferences in your user account.

Time Position Orientation Groundspeed Altitude Reporting Facility
EDT Latitude Longitude Course Direction KTS MPH feet Rate Location/Type
Mon 04:40:14 PM 41.7667 -87.7333 164° South 150 173 2,100  Level Chicago TRACON
Mon 04:42:00 PM 41.6819 -87.7014 164° South 262 302 6,500 2,071 Climbing Chicago Center
Mon 04:43:02 PM 41.6233 -87.7633 218° Southwest 270 311 7,900 823 Climbing Chicago Center
Mon 04:44:04 PM 41.5800 -87.8389 233° Southwest 262 302 8,200 1,694 Climbing Chicago Center
Mon 04:45:06 PM 41.5381 -87.9186 235° Southwest 265 305 11,400 2,806 Climbing Chicago Center
Mon 04:46:08 PM 41.4692 -88.0181 227° Southwest 331 381 14,000 2,516 Climbing Chicago Center
Mon 04:47:10 PM 41.3853 -88.0678 204° Southwest 353 406 16,600 2,371 Climbing Chicago Center
Mon 04:48:12 PM 41.2761 -88.1278 202° Southwest 364 419 18,900 2,419 Climbing Chicago Center
Mon 04:49:14 PM 41.1794 -88.1831 203° Southwest 375 432 21,600 2,323 Climbing Chicago Center
Mon 04:50:16 PM 41.0781 -88.2411 203° Southwest 392 451 23,700 1,935 Climbing Chicago Center
Mon 04:51:18 PM 40.9828 -88.3292 215° Southwest 414 476 25,600 1,887 Climbing Chicago Center
Mon 04:52:20 PM 40.8864 -88.4219 216° Southwest 429 494 27,600 1,839 Climbing Chicago Center
Mon 04:53:22 PM 40.7944 -88.5242 220° Southwest 433 498 29,400 1,984 Climbing Chicago Center
Mon 04:54:24 PM 40.6803 -88.6461 219° Southwest 441 507 31,700 1,984 Climbing Chicago Center
Mon 04:55:26 PM 40.5875 -88.7461 219° Southwest 435 501 33,500 1,597 Climbing Chicago Center
Mon 04:56:28 PM 40.4933 -88.8450 219° Southwest 435 501 35,000 1,403 Climbing Chicago Center
Mon 04:57:30 PM 40.4072 -88.9386 220° Southwest 434 499 36,400 1,403 Climbing Chicago Center
Mon 04:58:32 PM 40.2961 -89.0583 219° Southwest 430 495 37,900 774 Climbing Chicago Center
Mon 04:59:34 PM 40.2025 -89.1558 219° Southwest 429 494 38,000 48 Climbing Chicago Center
Mon 05:00:36 PM 40.1083 -89.2542 219° Southwest 431 496 38,000  Level Chicago Center
Mon 05:01:38 PM 40.0131 -89.3528 218° Southwest 433 498 38,000  Level Chicago Center
Mon 05:02:23 PM 39.9372 -89.4350 220° Southwest 433 498 38,000  Level Kansas City Center
Mon 05:02:40 PM 39.9175 -89.4542 217° Southwest 434 499 38,000  Level Chicago Center
Mon 05:03:23 PM 39.8419 -89.5336 219° Southwest 434 499 38,000  Level Kansas City Center
Mon 05:04:27 PM 39.7461 -89.6325 218° Southwest 437 503 38,000  Level Kansas City Center
Mon 05:06:32 PM 39.5628 -89.8233 219° Southwest 434 499 38,000  Level Kansas City Center
Mon 05:07:33 PM 39.4508 -89.9386 219° Southwest 430 495 38,000  Level Kansas City Center
Mon 05:08:34 PM 39.3581 -90.0342 219° Southwest 428 493 38,000  Level Kansas City Center
Mon 05:09:38 PM 39.2658 -90.1294 219° Southwest 426 490 38,000  Level Kansas City Center
Mon 05:10:39 PM 39.1742 -90.2231 218° Southwest 423 487 38,000  Level Kansas City Center
Mon 05:11:40 PM 39.0839 -90.3156 219° Southwest 418 481 38,000  Level Kansas City Center
Mon 05:12:43 PM 38.9750 -90.4258 218° Southwest 418 481 38,000  Level Kansas City Center
Mon 05:13:44 PM 38.8961 -90.5050 218° Southwest 416 479 38,000  Level Kansas City Center
Mon 05:14:46 PM 38.7828 -90.6153 217° Southwest 422 486 38,000  Level Kansas City Center
Mon 05:15:49 PM 38.7006 -90.6992 219° Southwest 426 490 38,000  Level Kansas City Center
Mon 05:16:50 PM 38.6069 -90.7919 218° Southwest 429 494 38,000  Level Kansas City Center
Mon 05:17:54 PM 38.4947 -90.9028 218° Southwest 428 493 38,000  Level Kansas City Center
Mon 05:18:54 PM 38.4017 -90.9956 218° Southwest 427 491 38,000  Level Kansas City Center
Mon 05:19:58 PM 38.3092 -91.0856 217° Southwest 420 483 38,000  Level Kansas City Center
Mon 05:20:58 PM 38.2175 -91.1769 218° Southwest 420 483 38,000  Level Kansas City Center
Mon 05:22:02 PM 38.1069 -91.2833 217° Southwest 420 483 38,000  Level Kansas City Center
Mon 05:23:03 PM 38.0156 -91.3742 218° Southwest 417 480 38,000  Level Kansas City Center
Mon 05:24:04 PM 37.9211 -91.4642 217° Southwest 417 480 38,000  Level Kansas City Center
Mon 05:25:07 PM 37.8306 -91.5556 219° Southwest 416 479 38,000  Level Kansas City Center
Mon 05:26:08 PM 37.7331 -91.6478 217° Southwest 423 487 38,000  Level Kansas City Center
Mon 05:27:12 PM 37.6364 -91.7408 217° Southwest 430 495 38,000  Level Kansas City Center
Mon 05:28:14 PM 37.5419 -91.8325 218° Southwest 426 490 38,000  Level Kansas City Center
Mon 05:29:14 PM 37.4478 -91.9242 218° Southwest 424 488 38,000  Level Kansas City Center
Mon 05:30:18 PM 37.3539 -92.0139 217° Southwest 422 486 38,000  Level Kansas City Center
Mon 05:31:19 PM 37.2419 -92.1225 218° Southwest 421 484 38,000  Level Kansas City Center
Mon 05:32:19 PM 37.1489 -92.2092 217° Southwest 418 481 38,000  Level Kansas City Center
Mon 05:33:22 PM 37.0547 -92.2975 217° Southwest 418 481 38,000  Level Kansas City Center
Mon 05:34:25 PM 36.9611 -92.3867 217° Southwest 419 482 38,000  Level Kansas City Center
Mon 05:35:25 PM 36.8667 -92.4750 217° Southwest 420 483 38,000  Level Kansas City Center
Mon 05:35:46 PM 36.8236 -92.5158 217° Southwest 431 496 38,000  Level Memphis Center
Mon 05:36:46 PM 36.7283 -92.6039 217° Southwest 431 496 38,000  Level Memphis Center
Mon 05:37:46 PM 36.6350 -92.6919 217° Southwest 431 496 38,000  Level Memphis Center
Mon 05:38:46 PM 36.5417 -92.7797 217° Southwest 431 496 38,000  Level Memphis Center
Mon 05:39:46 PM 36.4461 -92.8697 217° Southwest 431 496 38,000  Level Memphis Center
Mon 05:40:46 PM 36.3528 -92.9517 215° Southwest 425 489 38,000  Level Memphis Center
Mon 05:41:46 PM 36.2592 -93.0364 216° Southwest 425 489 38,000  Level Memphis Center
Mon 05:42:46 PM 36.1633 -93.1258 217° Southwest 419 482 38,000  Level Memphis Center
Mon 05:43:46 PM 36.0719 -93.2100 217° Southwest 419 482 38,000  Level Memphis Center
Mon 05:44:46 PM 35.9781 -93.2939 216° Southwest 419 482 38,000  Level Memphis Center
Mon 05:45:46 PM 35.8864 -93.3778 217° Southwest 419 482 38,000  Level Memphis Center
Mon 05:46:46 PM 35.8011 -93.4542 216° Southwest 419 482 38,000  Level Memphis Center
Mon 05:47:46 PM 35.7094 -93.5400 217° Southwest 419 482 38,000  Level Memphis Center
Mon 05:48:46 PM 35.6156 -93.6233 216° Southwest 414 476 38,000  Level Memphis Center
Mon 05:49:46 PM 35.5256 -93.7064 217° Southwest 414 476 38,000  Level Memphis Center
Mon 05:50:46 PM 35.4317 -93.7894 216° Southwest 414 476 38,000  Level Memphis Center
Mon 05:51:46 PM 35.3356 -93.8719 215° Southwest 414 476 38,000  Level Memphis Center
Mon 05:52:46 PM 35.2414 -93.9544 216° Southwest 419 482 38,000  Level Memphis Center
Mon 05:53:46 PM 35.1511 -94.0419 218° Southwest 419 482 38,000  Level Memphis Center
Mon 05:54:46 PM 35.0528 -94.1239 214° Southwest 424 488 38,000  Level Memphis Center
Mon 05:55:46 PM 34.9564 -94.2058 215° Southwest 424 488 38,000  Level Memphis Center
Mon 05:58:06 PM 34.7258 -94.4147 217° Southwest 431 496 38,000  Level Fort Worth Center
Mon 05:59:07 PM 34.6297 -94.4986 216° Southwest 431 496 38,000  Level Fort Worth Center
Mon 06:00:06 PM 34.5358 -94.5825 216° Southwest 431 496 38,000  Level Fort Worth Center
Mon 06:01:06 PM 34.4397 -94.6664 216° Southwest 426 490 38,000  Level Fort Worth Center
Mon 06:02:06 PM 34.3414 -94.7500 215° Southwest 431 496 38,000  Level Fort Worth Center
Mon 06:03:06 PM 34.2450 -94.8333 216° Southwest 431 496 38,000  Level Fort Worth Center
Mon 06:04:06 PM 34.1464 -94.9192 216° Southwest 431 496 38,000  Level Fort Worth Center
Mon 06:05:06 PM 34.0561 -94.9969 216° Southwest 442 509 38,000  Level Fort Worth Center
Mon 06:06:06 PM 33.9597 -95.0797 215° Southwest 442 509 38,000  Level Fort Worth Center
Mon 06:07:06 PM 33.8589 -95.1650 215° Southwest 447 514 38,000  Level Fort Worth Center
Mon 06:08:06 PM 33.7583 -95.2475 214° Southwest 447 514 38,000  Level Fort Worth Center
Mon 06:09:06 PM 33.6594 -95.3322 216° Southwest 447 514 38,000  Level Fort Worth Center
Mon 06:10:06 PM 33.5606 -95.4167 215° Southwest 447 514 38,000  Level Fort Worth Center
Mon 06:11:06 PM 33.4597 -95.5011 215° Southwest 447 514 38,000  Level Fort Worth Center
Mon 06:12:06 PM 33.3608 -95.5831 215° Southwest 447 514 38,000  Level Fort Worth Center
Mon 06:13:06 PM 33.2514 -95.6722 214° Southwest 440 506 38,000  Level Fort Worth Center
Mon 06:14:06 PM 33.1586 -95.7533 216° Southwest 434 499 38,000  Level Fort Worth Center
Mon 06:15:06 PM 33.0572 -95.8369 215° Southwest 434 499 38,000  Level Fort Worth Center
Mon 06:16:06 PM 32.9683 -95.9103 215° Southwest 434 499 38,000  Level Fort Worth Center
Mon 06:17:07 PM 32.8733 -95.9886 215° Southwest 434 499 38,000  Level Fort Worth Center
Mon 06:18:06 PM 32.7761 -96.0692 215° Southwest 434 499 38,000  Level Fort Worth Center
Mon 06:19:06 PM 32.6789 -96.1497 215° Southwest 429 494 38,000  Level Fort Worth Center
Mon 06:20:07 PM 32.5733 -96.2375 215° Southwest 429 494 38,000  Level Fort Worth Center
Mon 06:21:06 PM 32.4736 -96.3175 214° Southwest 424 488 38,000  Level Fort Worth Center
Mon 06:22:07 PM 32.3764 -96.4000 216° Southwest 424 488 38,000  Level Fort Worth Center
Mon 06:23:07 PM 32.2808 -96.4772 214° Southwest 424 488 38,000 -252 Level Fort Worth Center
Mon 06:24:06 PM 32.1833 -96.5542 214° Southwest 424 488 37,500 -700 Descending Fort Worth Center
Mon 06:25:07 PM 32.0856 -96.6336 215° Southwest 424 488 36,600 -942 Descending Fort Worth Center
Mon 06:26:07 PM 31.9881 -96.7128 215° Southwest 419 482 35,600 -1,000 Descending Fort Worth Center
Mon 06:27:07 PM 31.8861 -96.7967 215° Southwest 433 498 34,600 -900 Descending Fort Worth Center
Mon 06:28:07 PM 31.7967 -96.8658 213° Southwest 433 498 33,800 -900 Descending Fort Worth Center
Mon 06:29:07 PM 31.6967 -96.9469 215° Southwest 444 511 32,800 -1,527 Descending Fort Worth Center
Mon 06:29:57 PM 31.6142 -97.0161 216° Southwest 438 504 31,000 -2,250 Descending Houston Center
Mon 06:30:59 PM 31.5128 -97.0911 212° Southwest 430 495 28,600 -2,371 Descending Houston Center
Mon 06:32:01 PM 31.3994 -97.1342 198° South 425 489 26,100 -2,516 Descending Houston Center
Mon 06:33:03 PM 31.2700 -97.1850 199° South 416 479 23,400 -2,371 Descending Houston Center
Mon 06:34:05 PM 31.1617 -97.2278 199° South 410 472 21,200 -2,419 Descending Houston Center
Mon 06:35:07 PM 31.0539 -97.2697 198° South 407 468 18,400 -2,419 Descending Houston Center
Mon 06:36:09 PM 30.9506 -97.3106 199° South 396 456 16,200 -2,195 Descending Houston Center
Mon 06:37:10 PM 30.8525 -97.3478 198° South 389 448 13,900 -2,758 Descending Houston Center
Mon 06:38:13 PM 30.7386 -97.3928 199° South 370 426 10,500 -1,887 Descending Houston Center
Mon 06:39:14 PM 30.6611 -97.4536 214° Southwest 335 386 10,000 -732 Descending Houston Center
Mon 06:40:16 PM 30.6031 -97.5100 220° Southwest 284 327 9,000 -1,548 Descending Houston Center
Mon 06:41:18 PM 30.5475 -97.5633 220° Southwest 260 299 6,800 -1,984 Descending Houston Center
Mon 06:42:20 PM 30.4947 -97.6142 220° Southwest 249 287 4,900 -1,694 Descending Houston Center
Mon 06:43:22 PM 30.4344 -97.6569 211° Southwest 250 288 3,300 -1,161 Descending Houston Center
Mon 06:44:24 PM 30.3714 -97.6881 203° Southwest 248 285 2,500 -390 Descending Houston Center
Mon 06:45:25 PM 30.3156 -97.6825 175° South 213 245 2,500 -435 Level Houston Center
Mon 06:46:28 PM 30.2647 -97.6803 178° South 173 199 1,600 -857 Descending Houston Center

Login

Don't have an account? Register now (free) for customized features, flight alerts, and more!